sensor_id;sensor_type;location;lat;lon;timestamp;temperature;humidity
13093;DHT22;6612;49.568;11.000;2023-07-31T00:01:47;20.60;51.50
13093;DHT22;6612;49.568;11.000;2023-07-31T00:04:14;20.60;51.60
13093;DHT22;6612;49.568;11.000;2023-07-31T00:06:40;20.60;51.40
13093;DHT22;6612;49.568;11.000;2023-07-31T00:09:07;20.60;51.40
13093;DHT22;6612;49.568;11.000;2023-07-31T00:11:34;20.60;51.40
13093;DHT22;6612;49.568;11.000;2023-07-31T00:14:01;20.60;51.30
13093;DHT22;6612;49.568;11.000;2023-07-31T00:16:30;20.50;51.30
13093;DHT22;6612;49.568;11.000;2023-07-31T00:18:57;20.50;51.40
13093;DHT22;6612;49.568;11.000;2023-07-31T00:21:24;20.50;51.30
13093;DHT22;6612;49.568;11.000;2023-07-31T00:23:51;20.50;51.40
13093;DHT22;6612;49.568;11.000;2023-07-31T00:26:18;20.50;51.60
13093;DHT22;6612;49.568;11.000;2023-07-31T00:28:45;20.50;51.70
13093;DHT22;6612;49.568;11.000;2023-07-31T00:31:12;20.50;51.60
13093;DHT22;6612;49.568;11.000;2023-07-31T00:33:40;20.50;51.70
13093;DHT22;6612;49.568;11.000;2023-07-31T00:36:07;20.50;51.80
13093;DHT22;6612;49.568;11.000;2023-07-31T00:38:34;20.50;51.80
13093;DHT22;6612;49.568;11.000;2023-07-31T00:41:01;20.50;51.90
13093;DHT22;6612;49.568;11.000;2023-07-31T00:43:28;20.60;51.90
13093;DHT22;6612;49.568;11.000;2023-07-31T00:45:55;20.60;52.00
13093;DHT22;6612;49.568;11.000;2023-07-31T00:48:22;20.60;52.00
13093;DHT22;6612;49.568;11.000;2023-07-31T00:50:50;20.60;52.10
13093;DHT22;6612;49.568;11.000;2023-07-31T00:53:17;20.60;52.10
13093;DHT22;6612;49.568;11.000;2023-07-31T00:55:44;20.60;52.10
13093;DHT22;6612;49.568;11.000;2023-07-31T00:58:11;20.70;52.30
13093;DHT22;6612;49.568;11.000;2023-07-31T01:00:38;20.70;52.40
13093;DHT22;6612;49.568;11.000;2023-07-31T01:03:05;20.70;52.30
13093;DHT22;6612;49.568;11.000;2023-07-31T01:05:39;20.70;52.30
13093;DHT22;6612;49.568;11.000;2023-07-31T01:08:15;20.70;52.50
13093;DHT22;6612;49.568;11.000;2023-07-31T01:10:48;20.80;52.40
13093;DHT22;6612;49.568;11.000;2023-07-31T01:13:18;20.80;52.30
13093;DHT22;6612;49.568;11.000;2023-07-31T01:15:45;20.80;52.30
13093;DHT22;6612;49.568;11.000;2023-07-31T01:18:12;20.80;52.10
13093;DHT22;6612;49.568;11.000;2023-07-31T01:20:41;20.80;52.20
13093;DHT22;6612;49.568;11.000;2023-07-31T01:23:37;20.80;52.20
13093;DHT22;6612;49.568;11.000;2023-07-31T01:26:12;20.80;52.50
13093;DHT22;6612;49.568;11.000;2023-07-31T01:28:46;20.80;51.90
13093;DHT22;6612;49.568;11.000;2023-07-31T01:31:22;20.90;52.20
13093;DHT22;6612;49.568;11.000;2023-07-31T01:33:50;20.90;52.40
13093;DHT22;6612;49.568;11.000;2023-07-31T01:36:19;20.90;52.10
13093;DHT22;6612;49.568;11.000;2023-07-31T01:38:47;20.90;52.10
13093;DHT22;6612;49.568;11.000;2023-07-31T01:41:16;20.90;52.20
13093;DHT22;6612;49.568;11.000;2023-07-31T01:43:44;20.90;52.40
13093;DHT22;6612;49.568;11.000;2023-07-31T01:46:10;20.90;52.40
13093;DHT22;6612;49.568;11.000;2023-07-31T01:48:37;20.90;52.30
13093;DHT22;6612;49.568;11.000;2023-07-31T01:51:04;20.90;52.40
13093;DHT22;6612;49.568;11.000;2023-07-31T01:53:31;20.90;52.40
13093;DHT22;6612;49.568;11.000;2023-07-31T01:55:59;20.90;52.40
13093;DHT22;6612;49.568;11.000;2023-07-31T01:58:27;20.90;52.40
13093;DHT22;6612;49.568;11.000;2023-07-31T02:00:54;20.90;52.50
13093;DHT22;6612;49.568;11.000;2023-07-31T02:03:21;20.90;52.30
13093;DHT22;6612;49.568;11.000;2023-07-31T02:05:49;21.00;52.30
13093;DHT22;6612;49.568;11.000;2023-07-31T02:08:16;21.00;52.50
13093;DHT22;6612;49.568;11.000;2023-07-31T02:10:43;20.90;52.40
13093;DHT22;6612;49.568;11.000;2023-07-31T02:13:10;20.90;52.20
13093;DHT22;6612;49.568;11.000;2023-07-31T02:15:39;21.00;52.30
13093;DHT22;6612;49.568;11.000;2023-07-31T02:18:05;20.90;52.10
13093;DHT22;6612;49.568;11.000;2023-07-31T02:20:34;21.00;52.20
13093;DHT22;6612;49.568;11.000;2023-07-31T02:23:01;20.90;52.20
13093;DHT22;6612;49.568;11.000;2023-07-31T02:25:28;20.90;52.30
13093;DHT22;6612;49.568;11.000;2023-07-31T02:27:55;20.90;52.30
13093;DHT22;6612;49.568;11.000;2023-07-31T02:30:22;20.90;52.40
13093;DHT22;6612;49.568;11.000;2023-07-31T02:32:50;20.90;52.40
13093;DHT22;6612;49.568;11.000;2023-07-31T02:35:18;20.90;52.60
13093;DHT22;6612;49.568;11.000;2023-07-31T02:37:45;21.00;52.50
13093;DHT22;6612;49.568;11.000;2023-07-31T02:40:12;21.00;52.50
13093;DHT22;6612;49.568;11.000;2023-07-31T02:42:39;21.00;52.70
13093;DHT22;6612;49.568;11.000;2023-07-31T02:45:07;21.00;52.70
13093;DHT22;6612;49.568;11.000;2023-07-31T02:47:34;21.00;52.60
13093;DHT22;6612;49.568;11.000;2023-07-31T02:50:03;21.00;52.70
13093;DHT22;6612;49.568;11.000;2023-07-31T02:52:30;21.00;52.70
13093;DHT22;6612;49.568;11.000;2023-07-31T02:54:57;21.00;53.30
13093;DHT22;6612;49.568;11.000;2023-07-31T02:57:24;21.00;52.70
13093;DHT22;6612;49.568;11.000;2023-07-31T02:59:51;21.00;52.60
13093;DHT22;6612;49.568;11.000;2023-07-31T03:02:18;21.00;52.70
13093;DHT22;6612;49.568;11.000;2023-07-31T03:04:45;21.00;52.80
13093;DHT22;6612;49.568;11.000;2023-07-31T03:07:13;21.00;52.80
13093;DHT22;6612;49.568;11.000;2023-07-31T03:09:40;21.00;53.50
13093;DHT22;6612;49.568;11.000;2023-07-31T03:12:08;21.00;52.80
13093;DHT22;6612;49.568;11.000;2023-07-31T03:14:35;21.00;52.90
13093;DHT22;6612;49.568;11.000;2023-07-31T03:17:02;21.00;52.90
13093;DHT22;6612;49.568;11.000;2023-07-31T03:19:30;21.00;52.90
13093;DHT22;6612;49.568;11.000;2023-07-31T03:21:58;21.00;53.00
13093;DHT22;6612;49.568;11.000;2023-07-31T03:24:26;21.00;52.70
13093;DHT22;6612;49.568;11.000;2023-07-31T03:26:54;21.10;52.90
13093;DHT22;6612;49.568;11.000;2023-07-31T03:29:21;21.00;52.80
13093;DHT22;6612;49.568;11.000;2023-07-31T03:31:48;21.00;52.70
13093;DHT22;6612;49.568;11.000;2023-07-31T03:34:15;21.00;52.50
13093;DHT22;6612;49.568;11.000;2023-07-31T03:36:42;21.00;53.30
13093;DHT22;6612;49.568;11.000;2023-07-31T03:39:09;21.00;53.30
13093;DHT22;6612;49.568;11.000;2023-07-31T03:41:38;21.00;52.80
13093;DHT22;6612;49.568;11.000;2023-07-31T03:44:05;21.00;52.80
13093;DHT22;6612;49.568;11.000;2023-07-31T03:46:32;21.00;52.80
13093;DHT22;6612;49.568;11.000;2023-07-31T03:48:59;21.00;52.80
13093;DHT22;6612;49.568;11.000;2023-07-31T03:51:26;21.00;52.80
13093;DHT22;6612;49.568;11.000;2023-07-31T03:53:53;21.00;52.80
13093;DHT22;6612;49.568;11.000;2023-07-31T03:56:20;21.00;52.90
13093;DHT22;6612;49.568;11.000;2023-07-31T03:58:48;21.00;52.80
13093;DHT22;6612;49.568;11.000;2023-07-31T04:01:15;21.00;52.70
13093;DHT22;6612;49.568;11.000;2023-07-31T04:03:43;21.00;52.70
13093;DHT22;6612;49.568;11.000;2023-07-31T04:06:10;21.00;52.80
13093;DHT22;6612;49.568;11.000;2023-07-31T04:08:37;21.00;53.50
13093;DHT22;6612;49.568;11.000;2023-07-31T04:11:04;20.90;52.70
13093;DHT22;6612;49.568;11.000;2023-07-31T04:13:30;20.90;52.80
13093;DHT22;6612;49.568;11.000;2023-07-31T04:15:59;20.90;53.40
13093;DHT22;6612;49.568;11.000;2023-07-31T04:18:26;21.00;52.80
13093;DHT22;6612;49.568;11.000;2023-07-31T04:20:53;20.90;52.50
13093;DHT22;6612;49.568;11.000;2023-07-31T04:23:20;20.90;52.40
13093;DHT22;6612;49.568;11.000;2023-07-31T04:25:47;20.90;52.50
13093;DHT22;6612;49.568;11.000;2023-07-31T04:28:14;20.90;52.60
13093;DHT22;6612;49.568;11.000;2023-07-31T04:30:41;20.90;52.50
13093;DHT22;6612;49.568;11.000;2023-07-31T04:33:09;20.90;52.30
13093;DHT22;6612;49.568;11.000;2023-07-31T04:35:36;20.90;52.60
13093;DHT22;6612;49.568;11.000;2023-07-31T04:38:03;20.90;52.50
13093;DHT22;6612;49.568;11.000;2023-07-31T04:40:30;20.90;52.70
13093;DHT22;6612;49.568;11.000;2023-07-31T04:42:57;20.90;52.70
13093;DHT22;6612;49.568;11.000;2023-07-31T04:45:24;20.90;52.80
13093;DHT22;6612;49.568;11.000;2023-07-31T04:47:51;20.90;52.80
13093;DHT22;6612;49.568;11.000;2023-07-31T04:50:19;21.00;53.00
13093;DHT22;6612;49.568;11.000;2023-07-31T04:52:46;21.00;53.00
13093;DHT22;6612;49.568;11.000;2023-07-31T04:55:13;21.00;52.90
13093;DHT22;6612;49.568;11.000;2023-07-31T04:57:40;21.00;52.80
13093;DHT22;6612;49.568;11.000;2023-07-31T05:00:07;21.00;52.90
13093;DHT22;6612;49.568;11.000;2023-07-31T05:02:34;21.10;52.90
13093;DHT22;6612;49.568;11.000;2023-07-31T05:05:02;21.10;53.10
13093;DHT22;6612;49.568;11.000;2023-07-31T05:07:30;21.20;53.20
13093;DHT22;6612;49.568;11.000;2023-07-31T05:09:57;21.20;53.00
13093;DHT22;6612;49.568;11.000;2023-07-31T05:12:24;21.30;53.00
13093;DHT22;6612;49.568;11.000;2023-07-31T05:14:51;21.30;52.90
13093;DHT22;6612;49.568;11.000;2023-07-31T05:17:17;21.30;52.80
13093;DHT22;6612;49.568;11.000;2023-07-31T05:19:44;21.40;52.80
13093;DHT22;6612;49.568;11.000;2023-07-31T05:22:11;21.40;52.70
13093;DHT22;6612;49.568;11.000;2023-07-31T05:24:39;21.50;52.60
13093;DHT22;6612;49.568;11.000;2023-07-31T05:27:07;21.50;52.80
13093;DHT22;6612;49.568;11.000;2023-07-31T05:29:35;21.50;52.80
13093;DHT22;6612;49.568;11.000;2023-07-31T05:32:02;21.60;53.60
13093;DHT22;6612;49.568;11.000;2023-07-31T05:34:29;21.70;53.00
13093;DHT22;6612;49.568;11.000;2023-07-31T05:36:56;21.70;53.50
13093;DHT22;6612;49.568;11.000;2023-07-31T05:39:23;21.80;52.80
13093;DHT22;6612;49.568;11.000;2023-07-31T05:41:51;21.80;52.70
13093;DHT22;6612;49.568;11.000;2023-07-31T05:44:18;21.90;52.70
13093;DHT22;6612;49.568;11.000;2023-07-31T05:46:45;21.90;52.60
13093;DHT22;6612;49.568;11.000;2023-07-31T05:49:12;22.00;53.40
13093;DHT22;6612;49.568;11.000;2023-07-31T05:51:39;22.00;52.70
13093;DHT22;6612;49.568;11.000;2023-07-31T05:54:05;22.00;52.30
13093;DHT22;6612;49.568;11.000;2023-07-31T05:56:32;22.10;52.40
13093;DHT22;6612;49.568;11.000;2023-07-31T05:59:01;22.10;52.40
13093;DHT22;6612;49.568;11.000;2023-07-31T06:01:28;22.20;52.40
13093;DHT22;6612;49.568;11.000;2023-07-31T06:03:55;22.20;52.80
13093;DHT22;6612;49.568;11.000;2023-07-31T06:06:22;22.30;52.00
13093;DHT22;6612;49.568;11.000;2023-07-31T06:08:49;22.30;51.80
13093;DHT22;6612;49.568;11.000;2023-07-31T06:11:16;22.30;51.80
13093;DHT22;6612;49.568;11.000;2023-07-31T06:13:43;22.30;51.60
13093;DHT22;6612;49.568;11.000;2023-07-31T06:16:14;22.30;51.80
13093;DHT22;6612;49.568;11.000;2023-07-31T06:18:41;22.40;51.80
13093;DHT22;6612;49.568;11.000;2023-07-31T06:21:08;22.40;51.90
13093;DHT22;6612;49.568;11.000;2023-07-31T06:23:35;22.40;51.90
13093;DHT22;6612;49.568;11.000;2023-07-31T06:26:02;22.40;51.80
13093;DHT22;6612;49.568;11.000;2023-07-31T06:28:29;22.40;51.90
13093;DHT22;6612;49.568;11.000;2023-07-31T06:30:57;22.50;51.90
13093;DHT22;6612;49.568;11.000;2023-07-31T06:33:25;22.50;52.00
13093;DHT22;6612;49.568;11.000;2023-07-31T06:35:53;22.60;52.10
13093;DHT22;6612;49.568;11.000;2023-07-31T06:38:22;22.60;51.90
13093;DHT22;6612;49.568;11.000;2023-07-31T06:40:50;22.70;51.90
13093;DHT22;6612;49.568;11.000;2023-07-31T06:43:17;22.70;52.00
13093;DHT22;6612;49.568;11.000;2023-07-31T06:45:44;22.80;52.10
13093;DHT22;6612;49.568;11.000;2023-07-31T06:48:12;22.90;52.20
13093;DHT22;6612;49.568;11.000;2023-07-31T06:50:40;22.90;52.20
13093;DHT22;6612;49.568;11.000;2023-07-31T06:53:07;23.10;52.50
13093;DHT22;6612;49.568;11.000;2023-07-31T06:55:34;23.20;52.30
13093;DHT22;6612;49.568;11.000;2023-07-31T06:58:01;23.40;52.50
13093;DHT22;6612;49.568;11.000;2023-07-31T07:00:28;23.60;52.90
13093;DHT22;6612;49.568;11.000;2023-07-31T07:02:55;23.80;53.70
13093;DHT22;6612;49.568;11.000;2023-07-31T07:05:22;24.00;53.00
13093;DHT22;6612;49.568;11.000;2023-07-31T07:07:50;24.20;52.10
13093;DHT22;6612;49.568;11.000;2023-07-31T07:10:18;24.40;51.90
13093;DHT22;6612;49.568;11.000;2023-07-31T07:12:45;24.50;51.90
13093;DHT22;6612;49.568;11.000;2023-07-31T07:15:12;24.60;51.80
13093;DHT22;6612;49.568;11.000;2023-07-31T07:17:39;24.70;51.70
13093;DHT22;6612;49.568;11.000;2023-07-31T07:20:07;24.80;51.50
13093;DHT22;6612;49.568;11.000;2023-07-31T07:22:34;24.90;51.40
13093;DHT22;6612;49.568;11.000;2023-07-31T07:25:04;25.00;50.90
13093;DHT22;6612;49.568;11.000;2023-07-31T07:27:31;25.10;50.10
13093;DHT22;6612;49.568;11.000;2023-07-31T07:29:58;25.20;49.80
13093;DHT22;6612;49.568;11.000;2023-07-31T07:32:25;25.20;49.60
13093;DHT22;6612;49.568;11.000;2023-07-31T07:34:52;25.10;49.10
13093;DHT22;6612;49.568;11.000;2023-07-31T07:37:18;25.10;48.80
13093;DHT22;6612;49.568;11.000;2023-07-31T07:39:45;25.00;48.60
13093;DHT22;6612;49.568;11.000;2023-07-31T07:42:14;25.00;48.40
13093;DHT22;6612;49.568;11.000;2023-07-31T07:44:40;24.90;48.30
13093;DHT22;6612;49.568;11.000;2023-07-31T07:47:07;24.90;48.30
13093;DHT22;6612;49.568;11.000;2023-07-31T07:49:34;24.80;48.30
13093;DHT22;6612;49.568;11.000;2023-07-31T07:52:02;24.70;48.30
13093;DHT22;6612;49.568;11.000;2023-07-31T07:54:28;24.70;48.60
13093;DHT22;6612;49.568;11.000;2023-07-31T07:56:59;24.60;48.60
13093;DHT22;6612;49.568;11.000;2023-07-31T07:59:27;24.60;48.80
13093;DHT22;6612;49.568;11.000;2023-07-31T08:01:54;24.60;48.80
13093;DHT22;6612;49.568;11.000;2023-07-31T08:04:22;24.60;48.80
13093;DHT22;6612;49.568;11.000;2023-07-31T08:06:49;24.60;48.90
13093;DHT22;6612;49.568;11.000;2023-07-31T08:09:16;24.60;48.80
13093;DHT22;6612;49.568;11.000;2023-07-31T08:11:43;24.70;49.00
13093;DHT22;6612;49.568;11.000;2023-07-31T08:14:10;24.70;49.30
13093;DHT22;6612;49.568;11.000;2023-07-31T08:16:38;24.90;49.70
13093;DHT22;6612;49.568;11.000;2023-07-31T08:19:05;25.00;49.90
13093;DHT22;6612;49.568;11.000;2023-07-31T08:21:32;25.20;50.00
13093;DHT22;6612;49.568;11.000;2023-07-31T08:23:59;25.40;49.60
13093;DHT22;6612;49.568;11.000;2023-07-31T08:26:26;25.60;49.70
13093;DHT22;6612;49.568;11.000;2023-07-31T08:28:53;25.80;49.60
13093;DHT22;6612;49.568;11.000;2023-07-31T08:31:20;26.00;49.80
13093;DHT22;6612;49.568;11.000;2023-07-31T08:33:48;26.20;49.60
13093;DHT22;6612;49.568;11.000;2023-07-31T08:36:15;26.40;49.80
13093;DHT22;6612;49.568;11.000;2023-07-31T08:38:42;26.60;49.00
13093;DHT22;6612;49.568;11.000;2023-07-31T08:41:09;26.80;48.90
13093;DHT22;6612;49.568;11.000;2023-07-31T08:43:36;27.00;48.50
13093;DHT22;6612;49.568;11.000;2023-07-31T08:46:05;27.10;47.80
13093;DHT22;6612;49.568;11.000;2023-07-31T08:48:32;27.30;47.80
13093;DHT22;6612;49.568;11.000;2023-07-31T08:51:00;27.40;47.60
13093;DHT22;6612;49.568;11.000;2023-07-31T08:53:27;27.50;47.20
13093;DHT22;6612;49.568;11.000;2023-07-31T08:55:55;27.60;47.10
13093;DHT22;6612;49.568;11.000;2023-07-31T08:58:24;27.70;46.70
13093;DHT22;6612;49.568;11.000;2023-07-31T09:00:52;27.80;46.50
13093;DHT22;6612;49.568;11.000;2023-07-31T09:03:23;27.90;46.70
13093;DHT22;6612;49.568;11.000;2023-07-31T09:05:51;28.00;46.00
13093;DHT22;6612;49.568;11.000;2023-07-31T09:08:21;28.10;46.90
13093;DHT22;6612;49.568;11.000;2023-07-31T09:10:48;28.20;45.90
13093;DHT22;6612;49.568;11.000;2023-07-31T09:13:16;28.20;46.00
13093;DHT22;6612;49.568;11.000;2023-07-31T09:15:45;28.40;45.80
13093;DHT22;6612;49.568;11.000;2023-07-31T09:18:12;28.50;45.60
13093;DHT22;6612;49.568;11.000;2023-07-31T09:20:40;28.60;45.40
13093;DHT22;6612;49.568;11.000;2023-07-31T09:23:08;28.80;44.90
13093;DHT22;6612;49.568;11.000;2023-07-31T09:25:38;28.90;44.40
13093;DHT22;6612;49.568;11.000;2023-07-31T09:28:07;29.00;44.10
13093;DHT22;6612;49.568;11.000;2023-07-31T09:30:46;29.20;44.30
13093;DHT22;6612;49.568;11.000;2023-07-31T09:33:13;29.30;43.40
13093;DHT22;6612;49.568;11.000;2023-07-31T09:35:41;29.40;43.60
13093;DHT22;6612;49.568;11.000;2023-07-31T09:38:10;29.50;43.30
13093;DHT22;6612;49.568;11.000;2023-07-31T09:40:40;29.60;43.30
13093;DHT22;6612;49.568;11.000;2023-07-31T09:43:08;29.60;42.70
13093;DHT22;6612;49.568;11.000;2023-07-31T09:45:38;29.60;42.40
13093;DHT22;6612;49.568;11.000;2023-07-31T09:48:07;29.60;42.00
13093;DHT22;6612;49.568;11.000;2023-07-31T09:50:36;29.60;41.60
13093;DHT22;6612;49.568;11.000;2023-07-31T09:53:04;29.50;41.80
13093;DHT22;6612;49.568;11.000;2023-07-31T09:55:31;29.40;41.80
13093;DHT22;6612;49.568;11.000;2023-07-31T09:58:00;29.30;41.80
13093;DHT22;6612;49.568;11.000;2023-07-31T10:00:30;29.30;41.60
13093;DHT22;6612;49.568;11.000;2023-07-31T10:02:59;29.20;41.40
13093;DHT22;6612;49.568;11.000;2023-07-31T10:05:34;29.10;41.50
13093;DHT22;6612;49.568;11.000;2023-07-31T10:08:01;29.00;41.50
13093;DHT22;6612;49.568;11.000;2023-07-31T10:10:28;29.00;42.00
13093;DHT22;6612;49.568;11.000;2023-07-31T10:12:57;29.00;42.00
13093;DHT22;6612;49.568;11.000;2023-07-31T10:15:26;29.00;42.90
13093;DHT22;6612;49.568;11.000;2023-07-31T10:17:54;29.00;42.00
13093;DHT22;6612;49.568;11.000;2023-07-31T10:20:22;28.90;42.00
13093;DHT22;6612;49.568;11.000;2023-07-31T10:22:49;28.90;41.70
13093;DHT22;6612;49.568;11.000;2023-07-31T10:25:18;28.80;41.60
13093;DHT22;6612;49.568;11.000;2023-07-31T10:27:47;28.80;41.50
13093;DHT22;6612;49.568;11.000;2023-07-31T10:30:16;28.80;41.50
13093;DHT22;6612;49.568;11.000;2023-07-31T10:32:47;28.80;41.90
13093;DHT22;6612;49.568;11.000;2023-07-31T10:35:16;28.80;41.60
13093;DHT22;6612;49.568;11.000;2023-07-31T10:37:44;28.80;42.00
13093;DHT22;6612;49.568;11.000;2023-07-31T10:40:12;28.80;42.10
13093;DHT22;6612;49.568;11.000;2023-07-31T10:42:46;28.80;41.80
13093;DHT22;6612;49.568;11.000;2023-07-31T10:45:23;28.90;41.50
13093;DHT22;6612;49.568;11.000;2023-07-31T10:47:58;28.90;41.70
13093;DHT22;6612;49.568;11.000;2023-07-31T10:50:26;29.00;41.90
13093;DHT22;6612;49.568;11.000;2023-07-31T10:52:55;29.10;43.10
13093;DHT22;6612;49.568;11.000;2023-07-31T10:55:30;29.20;42.30
13093;DHT22;6612;49.568;11.000;2023-07-31T10:58:04;29.30;41.90
13093;DHT22;6612;49.568;11.000;2023-07-31T11:00:32;29.40;41.60
13093;DHT22;6612;49.568;11.000;2023-07-31T11:03:02;29.40;41.30
13093;DHT22;6612;49.568;11.000;2023-07-31T11:05:48;29.40;40.70
13093;DHT22;6612;49.568;11.000;2023-07-31T11:08:17;29.40;40.00
13093;DHT22;6612;49.568;11.000;2023-07-31T11:10:45;29.30;40.40
13093;DHT22;6612;49.568;11.000;2023-07-31T11:13:13;29.20;40.30
13093;DHT22;6612;49.568;11.000;2023-07-31T11:15:40;29.20;40.20
13093;DHT22;6612;49.568;11.000;2023-07-31T11:18:08;29.10;40.20
13093;DHT22;6612;49.568;11.000;2023-07-31T11:20:37;29.00;40.40
13093;DHT22;6612;49.568;11.000;2023-07-31T11:23:07;28.90;40.40
13093;DHT22;6612;49.568;11.000;2023-07-31T11:25:35;28.90;40.60
13093;DHT22;6612;49.568;11.000;2023-07-31T11:28:06;28.80;40.50
13093;DHT22;6612;49.568;11.000;2023-07-31T11:30:34;28.80;40.70
13093;DHT22;6612;49.568;11.000;2023-07-31T11:33:02;28.70;40.80
13093;DHT22;6612;49.568;11.000;2023-07-31T11:35:32;28.70;40.80
13093;DHT22;6612;49.568;11.000;2023-07-31T11:38:00;28.60;40.80
13093;DHT22;6612;49.568;11.000;2023-07-31T11:40:27;28.50;41.00
13093;DHT22;6612;49.568;11.000;2023-07-31T11:42:56;28.40;40.70
13093;DHT22;6612;49.568;11.000;2023-07-31T11:45:25;28.40;40.80
13093;DHT22;6612;49.568;11.000;2023-07-31T11:47:54;28.30;40.80
13093;DHT22;6612;49.568;11.000;2023-07-31T11:50:22;28.30;41.20
13093;DHT22;6612;49.568;11.000;2023-07-31T11:52:54;28.20;40.70
13093;DHT22;6612;49.568;11.000;2023-07-31T11:55:22;28.20;40.90
13093;DHT22;6612;49.568;11.000;2023-07-31T11:57:49;28.20;41.10
13093;DHT22;6612;49.568;11.000;2023-07-31T12:00:17;28.20;41.20
13093;DHT22;6612;49.568;11.000;2023-07-31T12:02:44;28.10;41.10
13093;DHT22;6612;49.568;11.000;2023-07-31T12:05:12;28.10;41.20
13093;DHT22;6612;49.568;11.000;2023-07-31T12:07:46;28.10;41.30
13093;DHT22;6612;49.568;11.000;2023-07-31T12:10:26;28.00;41.30
13093;DHT22;6612;49.568;11.000;2023-07-31T12:13:01;28.10;41.30
13093;DHT22;6612;49.568;11.000;2023-07-31T12:15:39;28.10;41.20
13093;DHT22;6612;49.568;11.000;2023-07-31T12:18:08;28.10;40.70
13093;DHT22;6612;49.568;11.000;2023-07-31T12:20:35;28.00;41.00
13093;DHT22;6612;49.568;11.000;2023-07-31T12:23:07;28.10;41.10
13093;DHT22;6612;49.568;11.000;2023-07-31T12:25:35;28.00;41.20
13093;DHT22;6612;49.568;11.000;2023-07-31T12:28:06;28.00;41.00
13093;DHT22;6612;49.568;11.000;2023-07-31T12:30:38;28.00;41.20
13093;DHT22;6612;49.568;11.000;2023-07-31T12:33:06;28.00;40.90
13093;DHT22;6612;49.568;11.000;2023-07-31T12:35:41;27.90;41.10
13093;DHT22;6612;49.568;11.000;2023-07-31T12:38:09;27.90;41.10
13093;DHT22;6612;49.568;11.000;2023-07-31T12:40:38;27.90;41.40
13093;DHT22;6612;49.568;11.000;2023-07-31T12:43:06;27.90;41.70
13093;DHT22;6612;49.568;11.000;2023-07-31T12:45:34;27.80;41.20
13093;DHT22;6612;49.568;11.000;2023-07-31T12:48:01;27.80;41.20
13093;DHT22;6612;49.568;11.000;2023-07-31T12:50:28;27.80;41.30
13093;DHT22;6612;49.568;11.000;2023-07-31T12:55:29;28.00;41.50
13093;DHT22;6612;49.568;11.000;2023-07-31T12:57:58;28.10;41.70
13093;DHT22;6612;49.568;11.000;2023-07-31T13:00:24;28.20;41.80
13093;DHT22;6612;49.568;11.000;2023-07-31T13:02:52;28.30;42.00
13093;DHT22;6612;49.568;11.000;2023-07-31T13:05:19;28.40;41.90
13093;DHT22;6612;49.568;11.000;2023-07-31T13:07:46;28.60;41.80
13093;DHT22;6612;49.568;11.000;2023-07-31T13:10:13;28.70;41.60
13093;DHT22;6612;49.568;11.000;2023-07-31T13:12:41;28.80;41.20
13093;DHT22;6612;49.568;11.000;2023-07-31T13:15:09;28.90;40.50
13093;DHT22;6612;49.568;11.000;2023-07-31T13:17:36;29.00;40.00
13093;DHT22;6612;49.568;11.000;2023-07-31T13:20:04;29.10;40.10
13093;DHT22;6612;49.568;11.000;2023-07-31T13:22:31;29.10;39.70
13093;DHT22;6612;49.568;11.000;2023-07-31T13:24:58;29.20;39.60
13093;DHT22;6612;49.568;11.000;2023-07-31T13:27:25;29.20;39.70
13093;DHT22;6612;49.568;11.000;2023-07-31T13:29:52;29.30;39.70
13093;DHT22;6612;49.568;11.000;2023-07-31T13:32:21;29.30;39.20
13093;DHT22;6612;49.568;11.000;2023-07-31T13:34:48;29.20;38.90
13093;DHT22;6612;49.568;11.000;2023-07-31T13:37:15;29.20;39.10
13093;DHT22;6612;49.568;11.000;2023-07-31T13:39:42;29.20;39.20
13093;DHT22;6612;49.568;11.000;2023-07-31T13:42:10;29.20;39.40
13093;DHT22;6612;49.568;11.000;2023-07-31T13:44:37;29.20;39.40
13093;DHT22;6612;49.568;11.000;2023-07-31T13:47:05;29.20;39.30
13093;DHT22;6612;49.568;11.000;2023-07-31T13:49:33;29.20;39.40
13093;DHT22;6612;49.568;11.000;2023-07-31T13:52:01;29.20;39.20
13093;DHT22;6612;49.568;11.000;2023-07-31T13:54:28;29.30;39.80
13093;DHT22;6612;49.568;11.000;2023-07-31T13:56:55;29.30;40.00
13093;DHT22;6612;49.568;11.000;2023-07-31T13:59:22;29.40;40.10
13093;DHT22;6612;49.568;11.000;2023-07-31T14:01:50;29.40;39.50
13093;DHT22;6612;49.568;11.000;2023-07-31T14:04:17;29.50;39.90
13093;DHT22;6612;49.568;11.000;2023-07-31T14:06:46;29.50;39.70
13093;DHT22;6612;49.568;11.000;2023-07-31T14:09:15;29.60;39.60
13093;DHT22;6612;49.568;11.000;2023-07-31T14:11:43;29.60;39.50
13093;DHT22;6612;49.568;11.000;2023-07-31T14:14:10;29.60;39.20
13093;DHT22;6612;49.568;11.000;2023-07-31T14:16:38;29.60;39.20
13093;DHT22;6612;49.568;11.000;2023-07-31T14:19:05;29.60;38.70
13093;DHT22;6612;49.568;11.000;2023-07-31T14:21:33;29.60;38.90
13093;DHT22;6612;49.568;11.000;2023-07-31T14:24:01;29.60;38.60
13093;DHT22;6612;49.568;11.000;2023-07-31T14:26:28;29.60;38.90
13093;DHT22;6612;49.568;11.000;2023-07-31T14:28:55;29.60;38.70
13093;DHT22;6612;49.568;11.000;2023-07-31T14:31:22;29.50;38.70
13093;DHT22;6612;49.568;11.000;2023-07-31T14:33:49;29.50;38.70
13093;DHT22;6612;49.568;11.000;2023-07-31T14:36:16;29.40;38.40
13093;DHT22;6612;49.568;11.000;2023-07-31T14:38:43;29.40;38.40
13093;DHT22;6612;49.568;11.000;2023-07-31T14:41:11;29.30;38.20
13093;DHT22;6612;49.568;11.000;2023-07-31T14:43:38;29.20;38.10
13093;DHT22;6612;49.568;11.000;2023-07-31T14:46:05;29.10;38.10
13093;DHT22;6612;49.568;11.000;2023-07-31T14:48:32;29.00;38.30
13093;DHT22;6612;49.568;11.000;2023-07-31T14:50:59;28.90;38.50
13093;DHT22;6612;49.568;11.000;2023-07-31T14:53:26;28.80;38.50
13093;DHT22;6612;49.568;11.000;2023-07-31T14:55:53;28.80;38.40
13093;DHT22;6612;49.568;11.000;2023-07-31T14:58:22;28.70;38.70
13093;DHT22;6612;49.568;11.000;2023-07-31T15:00:49;28.60;38.80
13093;DHT22;6612;49.568;11.000;2023-07-31T15:03:16;28.50;38.70
13093;DHT22;6612;49.568;11.000;2023-07-31T15:05:43;28.50;38.70
13093;DHT22;6612;49.568;11.000;2023-07-31T15:08:10;28.40;38.60
13093;DHT22;6612;49.568;11.000;2023-07-31T15:10:37;28.30;38.50
13093;DHT22;6612;49.568;11.000;2023-07-31T15:13:04;28.20;38.70
13093;DHT22;6612;49.568;11.000;2023-07-31T15:15:32;28.20;38.50
13093;DHT22;6612;49.568;11.000;2023-07-31T15:17:59;28.10;38.90
13093;DHT22;6612;49.568;11.000;2023-07-31T15:20:26;28.00;39.00
13093;DHT22;6612;49.568;11.000;2023-07-31T15:22:53;27.90;38.90
13093;DHT22;6612;49.568;11.000;2023-07-31T15:25:20;27.90;39.00
13093;DHT22;6612;49.568;11.000;2023-07-31T15:27:47;27.80;39.10
13093;DHT22;6612;49.568;11.000;2023-07-31T15:30:14;27.80;39.10
13093;DHT22;6612;49.568;11.000;2023-07-31T15:32:42;27.70;39.10
13093;DHT22;6612;49.568;11.000;2023-07-31T15:35:13;27.70;39.40
13093;DHT22;6612;49.568;11.000;2023-07-31T15:37:40;27.70;39.70